Time;durP1;ratioP1;P1;durP2;ratioP2;P2;SDS_P1;SDS_P2;PMS_P1;PMS_P2;Temp;Humidity;BMP_temperature;BMP_pressure;BME280_temperature;BME280_humidity;BME280_pressure;Samples;Min_cycle;Max_cycle;Signal;HPM_P1;HPM_P2
2022/07/01 00:00:06;;;;;;;5.23;4.83;;;;;;;19.85;79.97;97202.44;6229605;28;20303;-48
2022/07/01 01:02:44;;;;;;;6.60;6.00;;;;;;;20.08;81.29;97166.53;5464528;28;20600;-45
2022/07/01 01:05:47;;;;;;;6.80;6.20;;;;;;;20.12;81.27;97165.97;6228747;28;20231;-45
2022/07/01 01:08:49;;;;;;;8.47;6.57;;;;;;;20.11;81.37;97160.81;6228155;28;20861;-45
2022/07/01 01:11:52;;;;;;;7.37;6.67;;;;;;;20.10;81.40;97168.00;6228608;28;20719;-47
2022/07/01 01:14:56;;;;;;;6.93;6.30;;;;;;;20.18;81.29;97153.63;6227169;28;20273;-44
2022/07/01 01:17:58;;;;;;;6.77;6.23;;;;;;;20.19;81.26;97164.16;6227623;28;20236;-44
2022/07/01 01:21:00;;;;;;;7.00;6.40;;;;;;;20.21;81.14;97180.88;6228316;28;20259;-44
2022/07/01 01:24:03;;;;;;;6.77;6.27;;;;;;;20.21;81.10;97158.59;6227694;28;20227;-47
2022/07/01 01:27:06;;;;;;;7.67;6.93;;;;;;;20.24;80.94;97128.75;6227794;28;20222;-46
2022/07/01 01:30:11;;;;;;;11.57;7.00;;;;;;;20.20;81.23;97103.34;6227610;28;20662;-44
2022/07/01 01:33:13;;;;;;;8.03;7.33;;;;;;;20.23;81.29;97076.16;6228646;28;20231;-46
2022/07/01 01:36:15;;;;;;;8.87;8.07;;;;;;;20.28;81.11;97073.69;6228085;28;20769;-48
2022/07/01 01:39:18;;;;;;;7.60;6.80;;;;;;;20.20;81.01;97085.41;6228225;28;20223;-49
2022/07/01 01:42:21;;;;;;;7.77;7.07;;;;;;;20.08;81.44;97112.97;6228378;28;20208;-47
2022/07/01 01:45:23;;;;;;;7.50;6.53;;;;;;;20.02;81.53;97133.34;6226950;28;20294;-47
2022/07/01 01:48:25;;;;;;;7.87;7.27;;;;;;;20.07;81.72;97151.47;6228407;28;20585;-47
2022/07/01 01:51:27;;;;;;;7.10;6.30;;;;;;;20.15;81.46;97162.91;6204235;28;20653;-48
2022/07/01 01:54:29;;;;;;;15.07;7.93;;;;;;;20.22;81.28;97163.78;6226532;28;20785;-47
2022/07/01 01:57:31;;;;;;;7.70;7.00;;;;;;;20.24;81.10;97175.13;6227075;28;20758;-47
2022/07/01 02:00:33;;;;;;;7.47;6.87;;;;;;;20.16;81.67;97180.59;6228619;28;20236;-49
2022/07/01 02:03:37;;;;;;;7.17;6.47;;;;;;;20.18;81.78;97191.13;6232071;28;20322;-49
2022/07/01 02:06:40;;;;;;;6.70;6.20;;;;;;;20.16;81.59;97209.28;6232819;28;20327;-47
2022/07/01 02:09:43;;;;;;;6.67;6.17;;;;;;;20.14;81.73;97209.47;6216193;28;20240;-47
2022/07/01 02:12:45;;;;;;;8.07;6.83;;;;;;;20.19;81.74;97211.56;6231174;28;20647;-46
2022/07/01 02:15:49;;;;;;;7.07;6.33;;;;;;;20.24;81.68;97214.50;6231332;28;20238;-48
2022/07/01 02:18:51;;;;;;;7.20;6.50;;;;;;;20.21;81.58;97217.56;6233134;28;20228;-46
2022/07/01 02:21:53;;;;;;;7.07;6.47;;;;;;;20.14;81.63;97222.03;6233285;28;20243;-48
2022/07/01 02:24:55;;;;;;;6.77;6.17;;;;;;;20.12;82.04;97230.28;6232118;28;20707;-47
2022/07/01 02:27:58;;;;;;;6.77;6.17;;;;;;;20.17;82.05;97227.81;6214841;28;20243;-47
2022/07/01 02:31:02;;;;;;;9.03;8.20;;;;;;;20.18;81.90;97237.53;6231861;28;20620;-48
2022/07/01 02:34:05;;;;;;;7.20;6.60;;;;;;;20.19;81.76;97241.03;6230282;28;20734;-46
2022/07/01 02:37:07;;;;;;;7.50;6.80;;;;;;;20.14;81.82;97249.66;6231436;28;20266;-46
2022/07/01 02:40:10;;;;;;;7.57;6.97;;;;;;;20.04;82.13;97249.16;6213521;28;20731;-48
2022/07/01 02:43:12;;;;;;;7.90;7.10;;;;;;;19.99;82.31;97242.72;6232396;28;20707;-47
2022/07/01 02:46:14;;;;;;;7.83;5.90;;;;;;;19.93;82.66;97243.50;6231172;28;20691;-47
2022/07/01 02:49:16;;;;;;;7.13;6.47;;;;;;;19.85;82.88;97245.28;6231267;28;20671;-49
2022/07/01 02:52:19;;;;;;;7.77;7.17;;;;;;;19.88;82.88;97258.28;6231334;28;20243;-48
2022/07/01 02:55:21;;;;;;;7.43;6.73;;;;;;;19.94;82.70;97256.72;6230810;28;20778;-47
2022/07/01 02:58:24;;;;;;;8.20;7.50;;;;;;;19.96;82.43;97269.91;6231423;28;20240;-47
2022/07/01 03:01:26;;;;;;;9.73;8.77;;;;;;;19.98;82.35;97259.81;6232090;28;20238;-48
2022/07/01 03:04:28;;;;;;;8.20;7.50;;;;;;;20.00;82.28;97260.44;6230535;28;20235;-48
2022/07/01 03:07:31;;;;;;;7.57;6.97;;;;;;;19.91;82.43;97265.13;6230304;28;20699;-46
2022/07/01 03:10:33;;;;;;;7.20;6.60;;;;;;;19.86;82.68;97262.19;6231201;28;20603;-48
2022/07/01 03:13:35;;;;;;;6.70;6.20;;;;;;;19.87;82.42;97269.19;6228574;28;20231;-47
2022/07/01 03:16:37;;;;;;;7.23;6.67;;;;;;;19.88;82.40;97274.34;6230398;28;20712;-47
2022/07/01 03:19:39;;;;;;;7.57;6.50;;;;;;;19.90;82.34;97279.53;6230256;28;20235;-48
2022/07/01 03:22:43;;;;;;;6.87;6.23;;;;;;;19.87;82.20;97279.91;6230006;28;20587;-47
2022/07/01 03:25:46;;;;;;;6.87;6.30;;;;;;;19.81;82.33;97278.81;6230857;28;20246;-47
2022/07/01 03:28:48;;;;;;;6.70;6.10;;;;;;;19.73;82.48;97278.13;6230362;28;20235;-46
2022/07/01 03:31:50;;;;;;;6.47;5.97;;;;;;;19.68;82.57;97288.56;6230778;28;20441;-47
2022/07/01 03:34:53;;;;;;;6.40;5.90;;;;;;;19.70;82.55;97298.06;6229947;28;20243;-47
2022/07/01 03:37:56;;;;;;;5.97;5.47;;;;;;;19.72;82.36;97293.34;6230539;28;20841;-48
2022/07/01 03:40:58;;;;;;;6.93;6.33;;;;;;;19.66;82.32;97294.13;6230000;28;20655;-47
2022/07/01 03:44:00;;;;;;;6.40;5.87;;;;;;;19.59;82.61;97300.41;6229733;28;20358;-50
2022/07/01 03:47:03;;;;;;;6.20;5.70;;;;;;;19.61;82.51;97304.56;6211931;28;20234;-46
2022/07/01 03:50:06;;;;;;;6.10;5.60;;;;;;;19.60;82.43;97302.06;6230166;28;20722;-47
2022/07/01 03:56:28;;;;;;;7.13;5.80;;;;;;;19.51;82.75;97298.69;6229725;28;20631;-47
2022/07/01 03:59:33;;;;;;;7.30;6.60;;;;;;;19.54;82.70;97298.31;6230204;28;20239;-47
2022/07/01 04:02:35;;;;;;;6.33;5.73;;;;;;;19.61;82.43;97298.38;6229931;28;20723;-47
2022/07/01 04:05:38;;;;;;;6.63;6.03;;;;;;;19.64;82.19;97300.69;6229780;28;20228;-47
2022/07/01 04:08:40;;;;;;;5.70;5.20;;;;;;;19.70;82.27;97305.28;6211167;28;20231;-47
2022/07/01 04:11:44;;;;;;;6.30;5.70;;;;;;;19.75;82.06;97316.25;6229861;28;20251;-48
2022/07/01 04:14:46;;;;;;;6.40;5.90;;;;;;;19.77;81.97;97300.81;6229665;28;20247;-47
2022/07/01 04:17:49;;;;;;;6.43;5.83;;;;;;;19.81;81.85;97308.28;6227606;28;20338;-48
2022/07/01 04:24:13;;;;;;;6.10;5.50;;;;;;;19.84;81.92;97301.72;6227484;28;20911;-45
2022/07/01 04:27:15;;;;;;;6.50;5.90;;;;;;;19.94;81.73;97301.41;6229706;28;20222;-46
2022/07/01 04:30:17;;;;;;;6.50;5.83;;;;;;;19.99;81.22;97294.44;6229301;28;20664;-45
2022/07/01 04:33:19;;;;;;;5.53;5.13;;;;;;;20.13;81.20;97293.56;6228752;28;20694;-46
2022/07/01 04:36:22;;;;;;;6.63;6.03;;;;;;;20.21;80.75;97295.28;6228291;28;20274;-46
2022/07/01 04:39:24;;;;;;;6.10;5.60;;;;;;;20.27;80.74;97302.53;6229123;28;20599;-47
2022/07/01 04:42:26;;;;;;;6.27;5.77;;;;;;;20.33;80.59;97304.44;6229117;28;20281;-48
2022/07/01 04:45:28;;;;;;;5.50;5.10;;;;;;;20.36;80.52;97305.94;6211156;28;20673;-47
2022/07/01 04:48:30;;;;;;;6.60;5.77;;;;;;;20.44;80.70;97303.97;6229838;28;20224;-46
2022/07/01 04:51:34;;;;;;;6.17;5.67;;;;;;;20.41;80.45;97319.59;6210259;28;20231;-46
2022/07/01 04:54:37;;;;;;;6.23;5.30;;;;;;;20.43;80.58;97317.56;6227738;28;20230;-46
2022/07/01 04:57:39;;;;;;;5.40;4.87;;;;;;;20.57;79.68;97324.66;6228600;28;20234;-48
2022/07/01 05:00:42;;;;;;;5.27;4.80;;;;;;;20.74;78.64;97326.03;6228060;28;20228;-47
2022/07/01 05:03:44;;;;;;;4.67;4.30;;;;;;;20.89;78.04;97331.28;6227717;28;20258;-46
2022/07/01 05:06:47;;;;;;;8.47;5.23;;;;;;;21.04;77.38;97334.69;6227913;28;20297;-47
2022/07/01 05:09:49;;;;;;;5.67;5.20;;;;;;;21.22;77.24;97340.41;6228699;28;20263;-49
2022/07/01 05:12:51;;;;;;;5.13;4.73;;;;;;;21.32;76.60;97346.25;6200220;28;20700;-47
2022/07/01 05:15:53;;;;;;;4.57;4.10;;;;;;;21.52;73.69;97357.06;6212170;28;20781;-46
2022/07/01 05:22:16;;;;;;;4.10;3.43;;;;;;;22.01;70.64;97372.16;6228403;28;20712;-46
2022/07/01 05:25:18;;;;;;;4.40;2.90;;;;;;;22.19;68.52;97371.56;6227841;28;20250;-46
2022/07/01 05:28:20;;;;;;;3.40;3.10;;;;;;;22.35;66.85;97376.59;6229265;28;20820;-49
2022/07/01 05:31:22;;;;;;;2.67;2.47;;;;;;;22.46;65.97;97382.16;6228212;28;20241;-46
2022/07/01 05:34:25;;;;;;;2.73;2.40;;;;;;;22.56;64.41;97380.94;6210975;28;20259;-47
2022/07/01 05:37:27;;;;;;;2.20;2.00;;;;;;;22.61;64.31;97384.66;6233046;28;20710;-46
2022/07/01 05:40:29;;;;;;;4.07;1.60;;;;;;;22.61;62.64;97395.44;6232913;28;20332;-48
2022/07/01 05:43:32;;;;;;;3.37;1.83;;;;;;;22.65;61.58;97396.69;6232702;28;20734;-50
2022/07/01 05:46:36;;;;;;;2.20;1.43;;;;;;;22.56;61.75;97415.91;6233025;28;20695;-47
2022/07/01 05:49:38;;;;;;;1.97;1.07;;;;;;;22.46;60.60;97408.22;6232955;28;20648;-47
2022/07/01 05:52:42;;;;;;;1.27;1.07;;;;;;;22.36;61.00;97418.56;6232602;28;20231;-49
2022/07/01 05:55:44;;;;;;;1.43;1.10;;;;;;;22.34;60.21;97416.09;6232629;28;20231;-46
2022/07/01 05:58:47;;;;;;;1.47;1.03;;;;;;;22.38;60.79;97403.03;6211446;28;20274;-49
2022/07/01 06:01:50;;;;;;;1.77;1.33;;;;;;;22.34;61.43;97417.94;6216927;28;20398;-49
2022/07/01 06:04:52;;;;;;;1.63;1.10;;;;;;;22.34;61.17;97417.94;6220411;28;20315;-47
2022/07/01 06:07:55;;;;;;;1.70;1.00;;;;;;;22.34;60.97;97437.59;6232068;28;20250;-47
2022/07/01 06:10:57;;;;;;;1.97;1.23;;;;;;;22.30;61.07;97417.50;6231625;28;20246;-51
2022/07/01 06:13:59;;;;;;;2.80;1.13;;;;;;;22.33;61.03;97410.91;6231901;28;20285;-47
2022/07/01 06:17:02;;;;;;;1.70;1.20;;;;;;;22.37;61.58;97412.13;6232050;28;20235;-47
2022/07/01 06:20:04;;;;;;;2.13;1.27;;;;;;;22.38;61.06;97416.50;6232047;28;20251;-46
2022/07/01 06:23:07;;;;;;;1.23;1.13;;;;;;;22.55;60.77;97417.78;6214448;28;20263;-47
2022/07/01 06:26:09;;;;;;;1.70;1.60;;;;;;;22.69;59.83;97421.28;6232462;28;20305;-50
2022/07/01 06:29:13;;;;;;;2.87;1.50;;;;;;;22.90;59.98;97439.13;6231380;28;20230;-49
2022/07/01 06:32:15;;;;;;;2.63;1.30;;;;;;;23.07;59.22;97440.38;6214859;28;20607;-50
2022/07/01 06:35:17;;;;;;;5.00;1.70;;;;;;;23.20;58.46;97437.69;6231488;28;20239;-47
2022/07/01 06:38:19;;;;;;;1.70;1.53;;;;;;;23.35;57.93;97435.59;6232069;28;20281;-47
2022/07/01 06:41:28;;;;;;;5.17;1.33;;;;;;;23.56;57.75;97433.72;6231800;28;20236;-47
2022/07/01 06:44:30;;;;;;;2.43;1.70;;;;;;;23.83;56.83;97440.69;6230268;28;20231;-46
2022/07/01 06:47:33;;;;;;;1.80;1.50;;;;;;;24.02;56.23;97438.94;6229919;28;20234;-49
2022/07/01 06:50:35;;;;;;;2.07;1.27;;;;;;;24.38;55.54;97446.47;6232012;28;20231;-48
2022/07/01 06:53:37;;;;;;;1.95;1.80;;;;;;;24.49;55.03;97443.09;6231403;28;20223;-48
2022/07/01 06:56:40;;;;;;;1.97;1.40;;;;;;;24.67;55.12;97451.28;6231335;28;20595;-48
2022/07/01 06:59:42;;;;;;;1.67;1.57;;;;;;;24.90;54.09;97454.22;6230779;28;20699;-46
2022/07/01 07:02:44;;;;;;;2.22;1.67;;;;;;;25.02;53.86;97454.38;6231060;28;20247;-49
2022/07/01 07:05:46;;;;;;;2.53;1.77;;;;;;;25.19;52.88;97447.38;6230664;28;20228;-47
2022/07/01 07:08:49;;;;;;;4.03;1.60;;;;;;;25.42;52.38;97449.47;6231672;28;20235;-47
2022/07/01 07:11:51;;;;;;;1.95;1.63;;;;;;;25.77;51.94;97447.03;6230632;28;20262;-48
2022/07/01 07:14:53;;;;;;;3.97;1.63;;;;;;;26.15;51.22;97454.91;6230961;28;20235;-48
2022/07/01 07:17:57;;;;;;;2.00;1.65;;;;;;;26.30;51.01;97459.94;6230441;28;20677;-48
2022/07/01 07:20:59;;;;;;;3.38;1.85;;;;;;;26.43;50.78;97466.03;6230473;28;20235;-46
2022/07/01 07:24:01;;;;;;;1.95;1.75;;;;;;;26.40;51.02;97460.22;6230266;28;20234;-47
2022/07/01 07:27:04;;;;;;;1.80;1.70;;;;;;;26.60;50.42;97463.50;6229640;28;20251;-49
2022/07/01 07:30:06;;;;;;;2.72;1.83;;;;;;;26.99;49.58;97448.56;6230144;28;20297;-47
2022/07/01 07:33:08;;;;;;;3.72;2.13;;;;;;;27.07;50.13;97460.94;6230324;28;20242;-45
2022/07/01 07:36:12;;;;;;;2.33;2.00;;;;;;;27.07;49.28;97458.22;6231086;28;20236;-48
2022/07/01 07:39:14;;;;;;;2.40;2.00;;;;;;;27.00;49.75;97450.22;6229057;28;20244;-47
2022/07/01 07:42:16;;;;;;;2.35;2.13;;;;;;;27.03;49.65;97460.59;6212603;28;20266;-48
2022/07/01 07:45:18;;;;;;;2.50;1.50;;;;;;;27.17;49.49;97472.00;6229585;28;20246;-49
2022/07/01 07:48:21;;;;;;;3.85;2.10;;;;;;;27.58;48.88;97463.00;6235091;28;20235;-49
2022/07/01 07:51:24;;;;;;;4.45;2.40;;;;;;;27.51;49.25;97463.09;6230233;28;20742;-47
2022/07/01 07:54:27;;;;;;;3.35;2.10;;;;;;;27.97;47.77;97456.00;6229428;28;20322;-47
2022/07/01 07:57:30;;;;;;;2.20;2.00;;;;;;;28.51;46.80;97462.81;6228897;28;20270;-47
2022/07/01 08:00:32;;;;;;;4.53;2.83;;;;;;;28.83;45.53;97460.47;6228723;28;20293;-47
2022/07/01 08:03:40;;;;;;;3.08;2.20;;;;;;;29.10;45.02;97466.09;6212131;28;20277;-47
2022/07/01 08:06:42;;;;;;;2.67;2.42;;;;;;;29.32;44.87;97466.19;6228249;28;20300;-48
2022/07/01 08:09:47;;;;;;;2.33;2.13;;;;;;;29.68;44.22;97462.13;6229430;28;20668;-48
2022/07/01 08:12:50;;;;;;;4.55;2.15;;;;;;;30.12;43.81;97451.31;6229353;28;20224;-48
2022/07/01 08:15:53;;;;;;;3.63;2.40;;;;;;;30.32;42.84;97454.28;6229287;28;20603;-49
2022/07/01 08:18:55;;;;;;;3.90;2.40;;;;;;;30.16;43.23;97455.16;6229218;28;20244;-50
2022/07/01 08:21:57;;;;;;;4.03;2.88;;;;;;;30.32;42.61;97465.19;6211458;28;20298;-50
2022/07/01 08:24:59;;;;;;;2.65;2.45;;;;;;;30.67;42.32;97473.75;6228013;28;20324;-49
2022/07/01 08:28:03;;;;;;;3.70;2.63;;;;;;;30.60;41.45;97458.69;6228546;28;20369;-50
2022/07/01 08:31:05;;;;;;;5.28;2.75;;;;;;;30.60;42.51;97453.25;6229634;28;20242;-50
2022/07/01 08:34:09;;;;;;;3.35;2.53;;;;;;;30.99;42.41;97459.38;6209847;28;20246;-47
2022/07/01 08:37:11;;;;;;;3.63;2.63;;;;;;;31.23;41.26;97451.69;6228051;28;20775;-49
2022/07/01 08:40:13;;;;;;;5.05;2.67;;;;;;;31.13;41.39;97458.72;6228916;28;20662;-47
2022/07/01 08:43:15;;;;;;;3.40;2.90;;;;;;;31.16;41.49;97452.72;6228900;28;20319;-49
2022/07/01 08:46:17;;;;;;;3.10;2.78;;;;;;;31.18;41.05;97453.28;6227607;28;20232;-47
2022/07/01 08:49:21;;;;;;;3.60;2.80;;;;;;;31.33;40.43;97463.50;6228231;28;20227;-48
2022/07/01 08:52:23;;;;;;;3.33;2.90;;;;;;;31.16;41.30;97452.72;6228680;28;20353;-49
2022/07/01 08:55:26;;;;;;;2.88;2.58;;;;;;;31.49;40.79;97453.53;6228219;28;20354;-49
2022/07/01 08:58:28;;;;;;;7.60;3.08;;;;;;;31.84;40.19;97444.78;6228716;28;21028;-46
2022/07/01 09:01:57;;;;;;;3.80;2.65;;;;;;;31.88;40.59;97449.44;6229080;28;20261;-47
2022/07/01 09:05:05;;;;;;;3.30;2.75;;;;;;;32.20;40.58;97457.53;6174826;28;20241;-50
2022/07/01 09:08:08;;;;;;;3.15;2.85;;;;;;;32.72;39.48;97455.81;6176669;28;20260;-49
2022/07/01 09:11:17;;;;;;;3.17;2.58;;;;;;;32.94;38.65;97459.13;6179510;28;20292;-47
2022/07/01 09:14:30;;;;;;;3.15;2.80;;;;;;;32.92;38.62;97453.94;6181831;28;20815;-47
2022/07/01 09:17:38;;;;;;;6.40;3.30;;;;;;;32.96;37.69;97452.28;6180987;28;20245;-47
2022/07/01 09:20:42;;;;;;;3.88;3.20;;;;;;;32.80;37.17;97452.53;6182059;28;20754;-48
2022/07/01 09:23:44;;;;;;;4.50;3.20;;;;;;;32.71;36.68;97455.00;6180522;28;20244;-47
2022/07/01 09:27:10;;;;;;;3.45;3.15;;;;;;;32.95;38.14;97445.16;6179781;28;20814;-47
2022/07/01 09:30:12;;;;;;;3.13;2.72;;;;;;;33.53;37.49;97445.75;6161534;28;20607;-49
2022/07/01 09:33:23;;;;;;;4.47;3.30;;;;;;;33.77;37.08;97437.78;6180958;28;20271;-47
2022/07/01 09:36:25;;;;;;;5.82;2.92;;;;;;;33.70;36.54;97437.22;6219762;28;20235;-46
2022/07/01 09:39:28;;;;;;;4.45;3.17;;;;;;;33.47;36.52;97440.53;6232448;28;20309;-48
2022/07/01 09:42:45;;;;;;;3.55;3.10;;;;;;;33.60;36.46;97442.72;6232563;28;20315;-47
2022/07/01 09:46:04;;;;;;;3.40;2.70;;;;;;;34.15;36.84;97443.66;6213817;28;20236;-49
2022/07/01 09:49:06;;;;;;;7.03;3.20;;;;;;;33.88;36.48;97444.06;6232302;28;20733;-46
2022/07/01 09:52:09;;;;;;;3.13;2.83;;;;;;;33.79;36.62;97445.72;6232456;28;20695;-50
2022/07/01 09:55:12;;;;;;;3.15;2.85;;;;;;;33.79;35.51;97432.03;6230725;28;20458;-49
2022/07/01 09:58:14;;;;;;;3.88;3.10;;;;;;;33.85;35.16;97442.69;6232852;28;20857;-48
2022/07/01 10:01:17;;;;;;;5.22;3.05;;;;;;;34.14;34.25;97445.59;6232262;28;20228;-50
2022/07/01 10:04:20;;;;;;;3.05;2.75;;;;;;;34.34;34.29;97442.78;6205996;28;20608;-47
2022/07/01 10:07:22;;;;;;;4.55;2.60;;;;;;;34.40;34.76;97438.13;6208208;28;20232;-49
2022/07/01 10:10:41;;;;;;;5.40;3.03;;;;;;;34.25;33.58;97439.00;6208771;28;20318;-50
2022/07/01 10:13:45;;;;;;;5.47;2.80;;;;;;;34.53;33.36;97442.19;6208616;28;20619;-50
2022/07/01 10:16:53;;;;;;;4.60;2.70;;;;;;;34.80;32.92;97431.59;6205819;28;20728;-54
2022/07/01 10:20:05;;;;;;;3.28;2.65;;;;;;;34.88;32.73;97430.19;6207328;28;20240;-49
2022/07/01 10:23:07;;;;;;;2.90;2.70;;;;;;;35.38;31.92;97428.97;6207008;28;20693;-50
2022/07/01 10:26:13;;;;;;;3.22;2.50;;;;;;;35.68;31.25;97431.41;6207497;28;20232;-53
2022/07/01 10:29:35;;;;;;;2.78;2.53;;;;;;;35.94;29.95;97428.44;6208868;28;20237;-49
2022/07/01 10:32:46;;;;;;;3.05;2.60;;;;;;;35.92;31.41;97434.22;6207376;28;20319;-49
2022/07/01 10:36:07;;;;;;;2.72;2.40;;;;;;;36.03;31.57;97426.69;6205991;28;20228;-45
2022/07/01 10:39:17;;;;;;;2.80;2.60;;;;;;;35.59;31.77;97422.19;6207262;28;20715;-46
2022/07/01 10:42:20;;;;;;;2.90;2.70;;;;;;;35.65;31.66;97423.75;6205267;28;20235;-46
2022/07/01 10:45:23;;;;;;;4.82;2.25;;;;;;;35.93;31.18;97415.81;6205715;28;20311;-44
2022/07/01 10:48:30;;;;;;;6.80;2.30;;;;;;;35.84;30.33;97424.66;6206795;28;20311;-47
2022/07/01 10:51:51;;;;;;;2.40;2.20;;;;;;;36.17;30.27;97431.16;6203191;28;20283;-47
2022/07/01 10:54:55;;;;;;;3.05;2.58;;;;;;;36.23;30.68;97419.03;6205537;28;20603;-48
2022/07/01 10:57:57;;;;;;;2.78;2.53;;;;;;;36.56;30.04;97417.19;6206351;28;20274;-46
2022/07/01 11:01:00;;;;;;;2.85;2.65;;;;;;;36.67;29.61;97419.78;6204988;28;20235;-45
2022/07/01 11:04:02;;;;;;;4.32;2.47;;;;;;;36.53;30.28;97412.31;6221933;28;20435;-47
2022/07/01 11:07:04;;;;;;;2.50;2.30;;;;;;;36.80;30.24;97410.84;6220957;28;20597;-46
2022/07/01 11:10:08;;;;;;;3.08;2.42;;;;;;;37.17;29.68;97413.56;6210567;28;20318;-44
2022/07/01 11:13:14;;;;;;;3.50;2.30;;;;;;;37.77;29.21;97413.59;6229849;28;20630;-46
2022/07/01 11:16:16;;;;;;;2.47;2.20;;;;;;;37.76;29.03;97409.19;6228959;28;20258;-47
2022/07/01 11:19:19;;;;;;;2.63;2.42;;;;;;;37.69;28.93;97411.56;6234966;28;20248;-47
2022/07/01 11:22:26;;;;;;;4.25;2.60;;;;;;;37.40;29.67;97406.28;6231470;28;20240;-47
2022/07/01 11:25:29;;;;;;;2.72;2.33;;;;;;;37.38;29.24;97408.50;6230122;28;20683;-46
2022/07/01 11:28:39;;;;;;;4.53;2.30;;;;;;;37.09;29.30;97396.88;6229071;28;20234;-49
2022/07/01 11:31:41;;;;;;;2.33;2.10;;;;;;;37.44;29.51;97388.00;6229913;28;20789;-46
2022/07/01 11:34:43;;;;;;;3.65;2.20;;;;;;;37.22;29.51;97382.38;6228790;28;20703;-45
2022/07/01 11:41:08;;;;;;;2.40;2.20;;;;;;;35.92;29.90;97373.78;6229673;28;20263;-47
2022/07/01 11:44:10;;;;;;;3.40;2.33;;;;;;;36.52;29.87;97374.91;6229738;28;20227;-47
2022/07/01 11:47:23;;;;;;;4.63;2.67;;;;;;;37.21;29.27;97364.22;6229251;28;20678;-47
2022/07/01 11:50:26;;;;;;;4.03;2.55;;;;;;;37.39;29.10;97366.09;6230603;28;20228;-45
2022/07/01 11:53:28;;;;;;;2.72;2.30;;;;;;;37.49;28.42;97371.41;6210570;28;20879;-50
2022/07/01 11:56:34;;;;;;;3.35;2.40;;;;;;;37.93;27.84;97370.03;6228748;28;20231;-45
2022/07/01 11:59:38;;;;;;;2.55;2.08;;;;;;;37.49;27.87;97374.16;6229522;28;20613;-46
2022/07/01 12:02:41;;;;;;;2.90;2.60;;;;;;;37.56;27.30;97371.00;6231582;28;20291;-47
2022/07/01 12:05:43;;;;;;;4.53;2.50;;;;;;;37.46;28.31;97365.69;6228908;28;20282;-47
2022/07/01 12:08:48;;;;;;;2.78;2.58;;;;;;;38.16;27.26;97362.66;6229135;28;20361;-47
2022/07/01 12:11:52;;;;;;;3.45;2.50;;;;;;;36.32;29.00;97355.16;6228795;28;20587;-47
2022/07/01 12:14:56;;;;;;;4.55;2.58;;;;;;;35.14;30.81;97357.53;6227458;28;20272;-49
2022/07/01 12:18:06;;;;;;;4.80;2.80;;;;;;;34.21;32.71;97358.44;6228625;28;20232;-49
2022/07/01 12:21:08;;;;;;;2.55;2.35;;;;;;;33.77;34.45;97349.34;6226438;28;20215;-47
2022/07/01 12:24:15;;;;;;;3.65;2.33;;;;;;;33.53;34.71;97347.22;6228922;28;20239;-48
2022/07/01 12:27:21;;;;;;;2.55;1.90;;;;;;;33.78;34.59;97357.28;6228269;28;20236;-47
2022/07/01 12:30:24;;;;;;;3.70;2.55;;;;;;;33.91;34.28;97364.91;6229782;28;20235;-45
2022/07/01 12:33:26;;;;;;;2.83;2.50;;;;;;;33.66;34.49;97359.47;6228771;28;20224;-45
2022/07/01 12:36:28;;;;;;;4.22;2.72;;;;;;;33.64;34.64;97356.22;6228540;28;20580;-46
2022/07/01 12:39:30;;;;;;;3.55;3.05;;;;;;;34.42;34.39;97356.44;6228071;28;20239;-46
2022/07/01 12:42:38;;;;;;;2.50;2.30;;;;;;;35.51;32.35;97356.91;6229848;28;20235;-45
2022/07/01 12:45:40;;;;;;;3.15;2.85;;;;;;;36.30;31.00;97355.44;6227230;28;20722;-46
2022/07/01 12:48:50;;;;;;;5.63;2.78;;;;;;;36.44;29.30;97361.00;6228362;28;20794;-47
2022/07/01 12:51:53;;;;;;;2.95;2.67;;;;;;;36.32;30.00;97355.16;6229713;28;20232;-48
2022/07/01 12:54:57;;;;;;;3.20;3.00;;;;;;;35.21;32.18;97357.19;6228149;28;20235;-46
2022/07/01 12:58:00;;;;;;;3.58;2.67;;;;;;;34.61;34.25;97349.19;6228072;28;20242;-50
2022/07/01 13:01:02;;;;;;;4.00;2.80;;;;;;;34.29;35.01;97341.44;6227565;28;20715;-49
2022/07/01 13:04:04;;;;;;;3.10;2.80;;;;;;;33.65;34.84;97353.19;6228483;28;20266;-46
2022/07/01 13:07:06;;;;;;;2.95;2.72;;;;;;;33.78;35.31;97351.81;6226453;28;20257;-47
2022/07/01 13:10:08;;;;;;;3.65;2.90;;;;;;;34.60;34.55;97353.03;6227888;28;20257;-46
2022/07/01 13:13:12;;;;;;;4.50;3.22;;;;;;;34.60;34.27;97353.03;6228202;28;20239;-46
2022/07/01 13:16:14;;;;;;;3.28;2.92;;;;;;;34.11;34.52;97344.81;6227945;28;20289;-47
2022/07/01 13:19:16;;;;;;;2.95;2.65;;;;;;;33.77;34.73;97352.91;6228000;28;20239;-48
2022/07/01 13:22:19;;;;;;;9.02;3.10;;;;;;;33.37;35.20;97363.94;6228346;28;20798;-46
2022/07/01 13:25:21;;;;;;;3.30;3.00;;;;;;;32.77;36.42;97365.59;6226851;28;20236;-48
2022/07/01 13:28:23;;;;;;;3.42;2.60;;;;;;;32.46;36.80;97353.78;6228153;28;20224;-47
2022/07/01 13:31:26;;;;;;;4.22;2.60;;;;;;;32.47;37.55;97356.25;6227867;28;20324;-47
2022/07/01 13:34:28;;;;;;;2.50;2.30;;;;;;;32.56;38.06;97353.78;6227126;28;20230;-47
2022/07/01 13:37:30;;;;;;;3.75;2.50;;;;;;;32.64;38.66;97365.00;6227117;28;20322;-49
2022/07/01 13:40:32;;;;;;;2.88;2.42;;;;;;;32.36;39.12;97364.69;6228192;28;20337;-47
2022/07/01 13:43:34;;;;;;;2.50;2.30;;;;;;;32.42;39.48;97366.34;6228078;28;20286;-51
2022/07/01 13:46:38;;;;;;;3.75;2.97;;;;;;;32.67;39.38;97360.09;6227753;28;20235;-49
2022/07/01 13:49:47;;;;;;;2.92;2.72;;;;;;;33.00;39.16;97362.31;6227621;28;20236;-49
2022/07/01 13:52:49;;;;;;;5.35;2.95;;;;;;;33.71;38.00;97349.34;6229041;28;20243;-50
2022/07/01 13:55:51;;;;;;;2.67;2.47;;;;;;;34.60;35.82;97343.97;6228494;28;20234;-48
2022/07/01 13:58:54;;;;;;;6.03;2.90;;;;;;;35.93;34.06;97344.38;6231902;28;20227;-50
2022/07/01 14:01:57;;;;;;;3.25;2.90;;;;;;;37.09;32.57;97361.09;6232991;28;20704;-52
2022/07/01 14:04:59;;;;;;;3.10;2.80;;;;;;;38.37;29.89;97352.81;6232180;28;20321;-48
2022/07/01 14:08:03;;;;;;;3.53;2.67;;;;;;;39.36;27.94;97340.75;6231636;28;20234;-51
2022/07/01 14:11:05;;;;;;;5.03;3.03;;;;;;;40.39;26.72;97340.34;6215586;28;20232;-48
2022/07/01 14:14:07;;;;;;;3.55;3.25;;;;;;;40.74;25.65;97341.16;6232559;28;20247;-48
2022/07/01 14:17:09;;;;;;;3.65;3.35;;;;;;;40.53;25.97;97338.25;6231121;28;20231;-50
2022/07/01 14:20:13;;;;;;;4.28;3.38;;;;;;;41.92;23.82;97339.56;6231918;28;20708;-48
2022/07/01 14:23:15;;;;;;;3.30;2.92;;;;;;;41.79;24.06;97337.84;6231926;28;20235;-48
2022/07/01 14:26:17;;;;;;;4.35;3.22;;;;;;;39.58;26.49;97340.72;6231749;28;20774;-45
2022/07/01 14:29:19;;;;;;;3.50;3.20;;;;;;;38.39;28.40;97328.50;6231772;28;20676;-48
2022/07/01 14:32:26;;;;;;;2.88;2.55;;;;;;;40.56;25.70;97321.78;6207289;28;20229;-52
2022/07/01 14:35:28;;;;;;;3.30;3.00;;;;;;;42.12;23.32;97318.59;6228954;28;20762;-48
2022/07/01 14:38:30;;;;;;;3.35;2.80;;;;;;;43.00;21.87;97323.94;6231965;28;20689;-52
2022/07/01 14:41:33;;;;;;;3.90;3.50;;;;;;;43.73;20.62;97322.13;6231752;28;20734;-48
2022/07/01 14:44:35;;;;;;;3.33;3.03;;;;;;;44.91;20.20;97328.59;6231125;28;20719;-50
2022/07/01 14:47:37;;;;;;;4.22;2.95;;;;;;;44.78;19.72;97317.50;6230501;28;20761;-49
2022/07/01 14:50:41;;;;;;;3.55;3.15;;;;;;;44.84;19.50;97318.84;6231551;28;20266;-49
2022/07/01 14:53:43;;;;;;;2.90;2.70;;;;;;;45.12;19.80;97315.28;6231647;28;20243;-52
2022/07/01 14:56:46;;;;;;;3.95;3.00;;;;;;;45.54;19.65;97321.16;6230282;28;20235;-48
2022/07/01 14:59:49;;;;;;;4.50;3.03;;;;;;;45.90;18.61;97322.88;6230846;28;20731;-48
2022/07/01 15:02:51;;;;;;;3.28;2.78;;;;;;;45.30;19.13;97327.69;6230512;28;20763;-48
2022/07/01 15:05:53;;;;;;;5.75;3.15;;;;;;;45.16;18.54;97327.31;6230120;28;20343;-50
2022/07/01 15:08:55;;;;;;;3.97;3.10;;;;;;;44.68;18.64;97333.88;6229945;28;20265;-49
2022/07/01 15:11:57;;;;;;;4.05;2.92;;;;;;;45.02;19.03;97324.94;6231333;28;20805;-50
2022/07/01 15:15:00;;;;;;;4.78;3.42;;;;;;;44.67;19.40;97338.63;6231266;28;20322;-49
2022/07/01 15:18:02;;;;;;;4.55;2.90;;;;;;;45.22;19.28;97329.47;6229828;28;20250;-48
2022/07/01 15:21:04;;;;;;;4.10;2.78;;;;;;;45.23;18.51;97333.88;6212741;28;20236;-48
2022/07/01 15:24:06;;;;;;;3.00;2.70;;;;;;;45.08;18.81;97329.06;6229907;28;20227;-48
2022/07/01 15:27:08;;;;;;;4.80;3.08;;;;;;;44.88;18.39;97326.50;6211664;28;20267;-45
2022/07/01 15:30:10;;;;;;;4.68;3.05;;;;;;;45.00;18.45;97335.63;6230019;28;20243;-51
2022/07/01 15:33:13;;;;;;;3.33;2.70;;;;;;;44.77;18.73;97342.91;6224553;28;20208;-48
2022/07/01 15:36:15;;;;;;;5.63;3.47;;;;;;;44.12;19.58;97330.97;6219828;28;20313;-50